sensor_id;sensor_type;location;lat;lon;timestamp;pressure;altitude;pressure_sealevel;temperature;humidity
64698;BME280;51124;53.394;-6.294;2022-10-16T00:00:39;99153.73;;;17.73;14.45
64698;BME280;51124;53.394;-6.294;2022-10-16T00:03:04;99164.27;;;18.16;14.16
64698;BME280;51124;53.394;-6.294;2022-10-16T00:05:28;99161.99;;;17.28;14.45
64698;BME280;51124;53.394;-6.294;2022-10-16T00:08:03;99168.86;;;17.62;14.36
64698;BME280;51124;53.394;-6.294;2022-10-16T00:10:37;99179.41;;;18.09;14.31
64698;BME280;51124;53.394;-6.294;2022-10-16T00:13:11;99172.98;;;19.71;13.88
64698;BME280;51124;53.394;-6.294;2022-10-16T00:15:46;99185.74;;;17.64;14.40
64698;BME280;51124;53.394;-6.294;2022-10-16T00:18:20;99186.10;;;19.49;13.71
64698;BME280;51124;53.394;-6.294;2022-10-16T00:20:55;99188.61;;;18.72;13.77
64698;BME280;51124;53.394;-6.294;2022-10-16T00:23:20;99205.23;;;16.83;14.06
64698;BME280;51124;53.394;-6.294;2022-10-16T00:25:55;99196.81;;;15.87;13.51
64698;BME280;51124;53.394;-6.294;2022-10-16T00:28:30;99199.81;;;15.91;12.96
64698;BME280;51124;53.394;-6.294;2022-10-16T00:31:05;99202.75;;;15.64;12.77
64698;BME280;51124;53.394;-6.294;2022-10-16T00:33:29;99204.12;;;14.69;12.82
64698;BME280;51124;53.394;-6.294;2022-10-16T00:36:04;99208.49;;;15.57;12.13
64698;BME280;51124;53.394;-6.294;2022-10-16T00:38:38;99210.50;;;15.44;11.78
64698;BME280;51124;53.394;-6.294;2022-10-16T00:41:14;99212.59;;;15.02;11.93
64698;BME280;51124;53.394;-6.294;2022-10-16T00:43:40;99215.06;;;15.59;11.87
64698;BME280;51124;53.394;-6.294;2022-10-16T00:46:09;99220.33;;;15.62;11.67
64698;BME280;51124;53.394;-6.294;2022-10-16T00:48:33;99231.56;;;15.09;11.67
64698;BME280;51124;53.394;-6.294;2022-10-16T00:51:07;99229.45;;;14.22;12.00
64698;BME280;51124;53.394;-6.294;2022-10-16T00:53:41;99223.31;;;15.75;11.28
64698;BME280;51124;53.394;-6.294;2022-10-16T00:56:15;99231.83;;;15.08;11.52
64698;BME280;51124;53.394;-6.294;2022-10-16T00:58:49;99241.29;;;14.40;11.76
64698;BME280;51124;53.394;-6.294;2022-10-16T01:01:23;99244.41;;;14.66;11.53
64698;BME280;51124;53.394;-6.294;2022-10-16T01:03:57;99244.55;;;15.69;10.99
64698;BME280;51124;53.394;-6.294;2022-10-16T01:06:38;99246.94;;;15.53;11.12
64698;BME280;51124;53.394;-6.294;2022-10-16T01:09:06;99254.18;;;14.84;11.49
64698;BME280;51124;53.394;-6.294;2022-10-16T01:11:28;99249.62;;;15.68;11.22
64698;BME280;51124;53.394;-6.294;2022-10-16T01:13:55;99250.63;;;15.41;11.28
64698;BME280;51124;53.394;-6.294;2022-10-16T01:16:27;99247.32;;;14.26;11.65
64698;BME280;51124;53.394;-6.294;2022-10-16T01:18:54;99247.58;;;14.99;11.33
64698;BME280;51124;53.394;-6.294;2022-10-16T01:21:22;99248.87;;;15.25;11.16
64698;BME280;51124;53.394;-6.294;2022-10-16T01:23:55;99249.37;;;15.40;10.96
64698;BME280;51124;53.394;-6.294;2022-10-16T01:26:31;99255.30;;;14.81;11.15
64698;BME280;51124;53.394;-6.294;2022-10-16T01:28:52;99259.87;;;15.31;11.12
64698;BME280;51124;53.394;-6.294;2022-10-16T01:31:21;99261.01;;;15.53;11.01
64698;BME280;51124;53.394;-6.294;2022-10-16T01:33:48;99268.13;;;16.07;10.79
64698;BME280;51124;53.394;-6.294;2022-10-16T01:36:16;99273.42;;;14.64;11.11
64698;BME280;51124;53.394;-6.294;2022-10-16T01:38:44;99287.73;;;14.04;11.73
64698;BME280;51124;53.394;-6.294;2022-10-16T01:41:10;99274.56;;;13.99;11.52
64698;BME280;51124;53.394;-6.294;2022-10-16T01:43:38;99286.33;;;15.22;11.22
64698;BME280;51124;53.394;-6.294;2022-10-16T01:46:04;99294.13;;;15.09;11.33
64698;BME280;51124;53.394;-6.294;2022-10-16T01:48:39;99298.78;;;14.14;11.40
64698;BME280;51124;53.394;-6.294;2022-10-16T01:51:06;99311.16;;;13.90;11.44
64698;BME280;51124;53.394;-6.294;2022-10-16T01:53:32;99307.81;;;14.92;11.34
64698;BME280;51124;53.394;-6.294;2022-10-16T01:56:09;99313.53;;;15.88;11.13
64698;BME280;51124;53.394;-6.294;2022-10-16T01:58:37;99313.05;;;15.76;10.99
64698;BME280;51124;53.394;-6.294;2022-10-16T02:01:03;99322.96;;;14.75;11.34
64698;BME280;51124;53.394;-6.294;2022-10-16T02:03:28;99330.87;;;14.18;11.71
64698;BME280;51124;53.394;-6.294;2022-10-16T02:06:02;99331.51;;;14.60;11.20
64698;BME280;51124;53.394;-6.294;2022-10-16T02:08:36;99329.86;;;15.62;11.05
64698;BME280;51124;53.394;-6.294;2022-10-16T02:11:10;99330.13;;;16.82;11.05
64698;BME280;51124;53.394;-6.294;2022-10-16T02:13:47;99335.30;;;17.67;11.57
64698;BME280;51124;53.394;-6.294;2022-10-16T02:16:12;99328.84;;;16.78;11.84
64698;BME280;51124;53.394;-6.294;2022-10-16T02:18:46;99338.72;;;16.83;11.78
64698;BME280;51124;53.394;-6.294;2022-10-16T02:21:24;99353.40;;;17.99;12.84
64698;BME280;51124;53.394;-6.294;2022-10-16T02:23:53;99366.80;;;17.61;13.55
64698;BME280;51124;53.394;-6.294;2022-10-16T02:26:25;99366.65;;;18.50;13.30
64698;BME280;51124;53.394;-6.294;2022-10-16T02:28:55;99364.97;;;19.09;13.23
64698;BME280;51124;53.394;-6.294;2022-10-16T02:31:24;99374.30;;;17.90;13.90
64698;BME280;51124;53.394;-6.294;2022-10-16T02:33:51;99380.81;;;17.70;13.92
64698;BME280;51124;53.394;-6.294;2022-10-16T02:36:16;99373.78;;;18.33;13.76
64698;BME280;51124;53.394;-6.294;2022-10-16T02:38:51;99388.44;;;17.73;14.06
64698;BME280;51124;53.394;-6.294;2022-10-16T02:41:16;99393.21;;;19.28;13.56
64698;BME280;51124;53.394;-6.294;2022-10-16T02:43:50;99396.16;;;17.41;14.13
64698;BME280;51124;53.394;-6.294;2022-10-16T02:46:24;99404.36;;;17.05;14.31
64698;BME280;51124;53.394;-6.294;2022-10-16T02:48:58;99406.94;;;17.87;13.92
64698;BME280;51124;53.394;-6.294;2022-10-16T02:51:32;99402.78;;;17.43;14.07
64698;BME280;51124;53.394;-6.294;2022-10-16T02:54:07;99411.70;;;17.47;14.26
64698;BME280;51124;53.394;-6.294;2022-10-16T02:56:41;99415.46;;;17.77;14.15
64698;BME280;51124;53.394;-6.294;2022-10-16T02:59:15;99421.98;;;17.02;14.45
64698;BME280;51124;53.394;-6.294;2022-10-16T03:01:50;99431.88;;;17.82;14.20
64698;BME280;51124;53.394;-6.294;2022-10-16T03:04:24;99433.59;;;17.59;13.91
64698;BME280;51124;53.394;-6.294;2022-10-16T03:06:58;99436.04;;;18.58;13.71
64698;BME280;51124;53.394;-6.294;2022-10-16T03:09:32;99440.72;;;17.12;14.12
64698;BME280;51124;53.394;-6.294;2022-10-16T03:12:06;99444.17;;;14.16;13.87
64698;BME280;51124;53.394;-6.294;2022-10-16T03:14:39;99445.76;;;14.40;13.21
64698;BME280;51124;53.394;-6.294;2022-10-16T03:17:13;99447.08;;;15.91;12.56
64698;BME280;51124;53.394;-6.294;2022-10-16T03:19:47;99453.10;;;15.01;12.34
64698;BME280;51124;53.394;-6.294;2022-10-16T03:22:21;99448.48;;;14.81;12.31
64698;BME280;51124;53.394;-6.294;2022-10-16T03:24:55;99453.61;;;14.84;12.21
64698;BME280;51124;53.394;-6.294;2022-10-16T03:27:28;99463.03;;;14.89;11.92
64698;BME280;51124;53.394;-6.294;2022-10-16T03:30:02;99470.66;;;15.21;11.67
64698;BME280;51124;53.394;-6.294;2022-10-16T03:32:36;99471.59;;;14.66;11.73
64698;BME280;51124;53.394;-6.294;2022-10-16T03:35:10;99478.05;;;14.49;11.59
64698;BME280;51124;53.394;-6.294;2022-10-16T03:37:44;99475.87;;;15.84;11.39
64698;BME280;51124;53.394;-6.294;2022-10-16T03:40:18;99477.18;;;14.04;11.49
64698;BME280;51124;53.394;-6.294;2022-10-16T03:42:51;99477.13;;;15.12;11.03
64698;BME280;51124;53.394;-6.294;2022-10-16T03:45:25;99486.13;;;14.85;11.40
64698;BME280;51124;53.394;-6.294;2022-10-16T03:47:59;99493.82;;;14.07;11.51
64698;BME280;51124;53.394;-6.294;2022-10-16T03:50:32;99498.15;;;14.45;11.42
64698;BME280;51124;53.394;-6.294;2022-10-16T03:53:06;99507.05;;;14.91;11.18
64698;BME280;51124;53.394;-6.294;2022-10-16T03:55:41;99519.03;;;14.03;11.43
64698;BME280;51124;53.394;-6.294;2022-10-16T03:58:15;99521.10;;;14.60;11.34
64698;BME280;51124;53.394;-6.294;2022-10-16T04:00:49;99523.39;;;14.46;11.43
64698;BME280;51124;53.394;-6.294;2022-10-16T04:03:23;99527.82;;;15.91;10.81
64698;BME280;51124;53.394;-6.294;2022-10-16T04:05:57;99541.02;;;15.13;10.75
64698;BME280;51124;53.394;-6.294;2022-10-16T04:08:31;99554.08;;;14.53;11.22
64698;BME280;51124;53.394;-6.294;2022-10-16T04:11:05;99563.71;;;15.03;11.26
64698;BME280;51124;53.394;-6.294;2022-10-16T04:13:38;99567.49;;;13.99;11.45
64698;BME280;51124;53.394;-6.294;2022-10-16T04:16:12;99573.29;;;15.40;10.97
64698;BME280;51124;53.394;-6.294;2022-10-16T04:18:46;99578.52;;;14.53;11.30
64698;BME280;51124;53.394;-6.294;2022-10-16T04:21:19;99581.65;;;15.16;11.09
64698;BME280;51124;53.394;-6.294;2022-10-16T04:23:53;99588.14;;;14.23;11.24
64698;BME280;51124;53.394;-6.294;2022-10-16T04:26:27;99605.09;;;14.13;11.27
64698;BME280;51124;53.394;-6.294;2022-10-16T04:29:00;99610.10;;;15.39;10.86
64698;BME280;51124;53.394;-6.294;2022-10-16T04:31:34;99613.99;;;16.42;10.71
64698;BME280;51124;53.394;-6.294;2022-10-16T04:34:07;99626.49;;;13.64;11.37
64698;BME280;51124;53.394;-6.294;2022-10-16T04:36:41;99629.85;;;15.16;11.15
64698;BME280;51124;53.394;-6.294;2022-10-16T04:39:15;99637.55;;;14.98;11.09
64698;BME280;51124;53.394;-6.294;2022-10-16T04:41:49;99642.68;;;15.26;10.95
64698;BME280;51124;53.394;-6.294;2022-10-16T04:44:23;99655.99;;;16.50;10.54
64698;BME280;51124;53.394;-6.294;2022-10-16T04:46:56;99659.76;;;14.54;11.20
64698;BME280;51124;53.394;-6.294;2022-10-16T04:49:30;99664.69;;;14.64;11.05
64698;BME280;51124;53.394;-6.294;2022-10-16T04:52:04;99670.35;;;14.25;11.32
64698;BME280;51124;53.394;-6.294;2022-10-16T04:54:38;99668.50;;;15.45;10.81
64698;BME280;51124;53.394;-6.294;2022-10-16T04:57:11;99675.63;;;16.68;10.44
64698;BME280;51124;53.394;-6.294;2022-10-16T04:59:45;99673.72;;;18.45;10.55
64698;BME280;51124;53.394;-6.294;2022-10-16T05:02:19;99676.49;;;15.49;11.93
64698;BME280;51124;53.394;-6.294;2022-10-16T05:04:53;99676.76;;;14.94;12.10
64698;BME280;51124;53.394;-6.294;2022-10-16T05:07:27;99682.72;;;18.48;12.30
64698;BME280;51124;53.394;-6.294;2022-10-16T05:10:01;99677.57;;;17.86;12.87
64698;BME280;51124;53.394;-6.294;2022-10-16T05:12:35;99673.45;;;18.14;13.14
64698;BME280;51124;53.394;-6.294;2022-10-16T05:15:10;99677.69;;;17.01;13.64
64698;BME280;51124;53.394;-6.294;2022-10-16T05:17:44;99674.04;;;18.33;13.45
64698;BME280;51124;53.394;-6.294;2022-10-16T05:20:19;99670.39;;;19.01;13.22
64698;BME280;51124;53.394;-6.294;2022-10-16T05:22:53;99672.06;;;17.84;13.57
64698;BME280;51124;53.394;-6.294;2022-10-16T05:25:28;99675.93;;;17.14;13.97
64698;BME280;51124;53.394;-6.294;2022-10-16T05:28:02;99670.94;;;17.06;14.01
64698;BME280;51124;53.394;-6.294;2022-10-16T05:30:37;99682.53;;;16.84;14.06
64698;BME280;51124;53.394;-6.294;2022-10-16T05:33:11;99689.02;;;17.47;13.87
64698;BME280;51124;53.394;-6.294;2022-10-16T05:35:45;99699.11;;;16.76;14.04
64698;BME280;51124;53.394;-6.294;2022-10-16T05:38:20;99707.50;;;16.63;14.51
64698;BME280;51124;53.394;-6.294;2022-10-16T05:40:54;99701.55;;;16.66;14.15
64698;BME280;51124;53.394;-6.294;2022-10-16T05:43:29;99698.51;;;16.91;14.19
64698;BME280;51124;53.394;-6.294;2022-10-16T05:45:55;99709.49;;;16.90;14.51
64698;BME280;51124;53.394;-6.294;2022-10-16T05:48:19;99701.49;;;17.67;13.98
64698;BME280;51124;53.394;-6.294;2022-10-16T05:50:58;99717.72;;;17.01;14.18
64698;BME280;51124;53.394;-6.294;2022-10-16T05:53:22;99722.22;;;16.38;14.38
64698;BME280;51124;53.394;-6.294;2022-10-16T05:55:57;99723.19;;;16.68;13.92
64698;BME280;51124;53.394;-6.294;2022-10-16T05:58:32;99722.88;;;14.46;13.63
64698;BME280;51124;53.394;-6.294;2022-10-16T06:00:57;99715.25;;;14.84;12.88
64698;BME280;51124;53.394;-6.294;2022-10-16T06:03:21;99720.76;;;14.79;12.75
64698;BME280;51124;53.394;-6.294;2022-10-16T06:05:55;99723.37;;;14.86;12.15
64698;BME280;51124;53.394;-6.294;2022-10-16T06:08:29;99730.39;;;13.83;12.29
64698;BME280;51124;53.394;-6.294;2022-10-16T06:11:04;99731.20;;;14.66;11.96
64698;BME280;51124;53.394;-6.294;2022-10-16T06:13:28;99732.41;;;15.43;11.61
64698;BME280;51124;53.394;-6.294;2022-10-16T06:16:03;99737.78;;;13.81;11.87
64698;BME280;51124;53.394;-6.294;2022-10-16T06:18:37;99740.84;;;14.88;11.51
64698;BME280;51124;53.394;-6.294;2022-10-16T06:21:14;99740.60;;;14.69;11.77
64698;BME280;51124;53.394;-6.294;2022-10-16T06:23:39;99743.25;;;14.59;11.36
64698;BME280;51124;53.394;-6.294;2022-10-16T06:26:14;99747.14;;;15.96;10.87
64698;BME280;51124;53.394;-6.294;2022-10-16T06:28:39;99747.91;;;14.16;11.49
64698;BME280;51124;53.394;-6.294;2022-10-16T06:31:13;99753.61;;;14.20;11.39
64698;BME280;51124;53.394;-6.294;2022-10-16T06:33:50;99750.37;;;13.71;11.24
64698;BME280;51124;53.394;-6.294;2022-10-16T06:36:16;99758.50;;;15.05;11.22
64698;BME280;51124;53.394;-6.294;2022-10-16T06:38:40;99762.31;;;14.40;11.15
64698;BME280;51124;53.394;-6.294;2022-10-16T06:41:16;99767.16;;;15.49;11.00
64698;BME280;51124;53.394;-6.294;2022-10-16T06:43:40;99771.58;;;13.36;11.50
64698;BME280;51124;53.394;-6.294;2022-10-16T06:46:16;99781.50;;;14.22;11.13
64698;BME280;51124;53.394;-6.294;2022-10-16T06:48:40;99791.58;;;15.57;10.80
64698;BME280;51124;53.394;-6.294;2022-10-16T06:51:15;99798.86;;;14.26;11.06
64698;BME280;51124;53.394;-6.294;2022-10-16T06:53:41;99803.61;;;15.57;10.61
64698;BME280;51124;53.394;-6.294;2022-10-16T06:56:07;99814.21;;;14.39;11.04
64698;BME280;51124;53.394;-6.294;2022-10-16T06:58:31;99816.18;;;14.40;10.96
64698;BME280;51124;53.394;-6.294;2022-10-16T07:01:05;99820.20;;;14.89;10.88
64698;BME280;51124;53.394;-6.294;2022-10-16T07:03:41;99830.86;;;15.00;11.06
64698;BME280;51124;53.394;-6.294;2022-10-16T07:06:06;99835.11;;;15.51;10.75
64698;BME280;51124;53.394;-6.294;2022-10-16T07:08:31;99843.98;;;14.38;11.00
64698;BME280;51124;53.394;-6.294;2022-10-16T07:11:06;99852.32;;;15.59;10.74
64698;BME280;51124;53.394;-6.294;2022-10-16T07:13:33;99856.78;;;15.32;10.83
64698;BME280;51124;53.394;-6.294;2022-10-16T07:15:57;99863.40;;;14.31;11.11
64698;BME280;51124;53.394;-6.294;2022-10-16T07:18:30;99869.04;;;14.64;11.12
64698;BME280;51124;53.394;-6.294;2022-10-16T07:21:05;99871.39;;;14.86;10.73
64698;BME280;51124;53.394;-6.294;2022-10-16T07:23:39;99883.46;;;14.72;10.92
64698;BME280;51124;53.394;-6.294;2022-10-16T07:26:13;99890.52;;;16.68;10.39
64698;BME280;51124;53.394;-6.294;2022-10-16T07:28:47;99899.61;;;15.11;10.84
64698;BME280;51124;53.394;-6.294;2022-10-16T07:31:22;99908.40;;;15.60;10.76
64698;BME280;51124;53.394;-6.294;2022-10-16T07:33:58;99919.83;;;14.20;11.14
64698;BME280;51124;53.394;-6.294;2022-10-16T07:36:22;99920.90;;;14.66;10.74
64698;BME280;51124;53.394;-6.294;2022-10-16T07:38:55;99923.72;;;15.82;10.55
64698;BME280;51124;53.394;-6.294;2022-10-16T07:41:29;99923.86;;;15.77;10.71
64698;BME280;51124;53.394;-6.294;2022-10-16T07:44:03;99927.40;;;15.17;10.67
64698;BME280;51124;53.394;-6.294;2022-10-16T07:46:37;99936.64;;;18.37;10.75
64698;BME280;51124;53.394;-6.294;2022-10-16T07:49:11;99944.47;;;16.95;11.54
64698;BME280;51124;53.394;-6.294;2022-10-16T07:51:45;99956.69;;;16.16;11.65
64698;BME280;51124;53.394;-6.294;2022-10-16T07:54:19;99957.90;;;19.25;11.40
64698;BME280;51124;53.394;-6.294;2022-10-16T07:56:53;99968.82;;;17.81;12.47
64698;BME280;51124;53.394;-6.294;2022-10-16T07:59:27;99986.31;;;18.48;12.79
64698;BME280;51124;53.394;-6.294;2022-10-16T08:02:01;99996.72;;;18.34;12.97
64698;BME280;51124;53.394;-6.294;2022-10-16T08:04:36;100008.69;;;17.51;13.32
64698;BME280;51124;53.394;-6.294;2022-10-16T08:07:10;100014.02;;;17.62;13.40
64698;BME280;51124;53.394;-6.294;2022-10-16T08:09:44;100014.95;;;18.18;13.16
64698;BME280;51124;53.394;-6.294;2022-10-16T08:12:18;100016.89;;;18.40;13.25
64698;BME280;51124;53.394;-6.294;2022-10-16T08:14:52;100012.23;;;18.61;12.89
64698;BME280;51124;53.394;-6.294;2022-10-16T08:17:26;100016.60;;;17.77;13.40
64698;BME280;51124;53.394;-6.294;2022-10-16T08:20:00;100012.83;;;18.08;13.34
64698;BME280;51124;53.394;-6.294;2022-10-16T08:22:45;100009.19;;;18.75;13.27
64698;BME280;51124;53.394;-6.294;2022-10-16T08:25:19;100010.90;;;18.40;13.25
64698;BME280;51124;53.394;-6.294;2022-10-16T08:27:53;100009.37;;;18.28;13.24
64698;BME280;51124;53.394;-6.294;2022-10-16T08:30:27;100003.58;;;18.65;13.39
64698;BME280;51124;53.394;-6.294;2022-10-16T08:33:02;100003.70;;;18.65;13.13
64698;BME280;51124;53.394;-6.294;2022-10-16T08:35:37;99998.87;;;18.29;13.53
64698;BME280;51124;53.394;-6.294;2022-10-16T08:38:11;99995.33;;;18.18;13.26
64698;BME280;51124;53.394;-6.294;2022-10-16T08:40:45;99990.12;;;18.82;13.02
64698;BME280;51124;53.394;-6.294;2022-10-16T08:43:28;99988.61;;;18.54;13.13
64698;BME280;51124;53.394;-6.294;2022-10-16T08:45:58;99990.94;;;15.79;13.01
64698;BME280;51124;53.394;-6.294;2022-10-16T08:48:20;99992.89;;;16.23;12.18
64698;BME280;51124;53.394;-6.294;2022-10-16T08:50:45;99998.51;;;16.69;11.87
64698;BME280;51124;53.394;-6.294;2022-10-16T08:53:15;100004.68;;;15.68;12.29
64698;BME280;51124;53.394;-6.294;2022-10-16T08:55:43;100006.61;;;16.84;11.34
64698;BME280;51124;53.394;-6.294;2022-10-16T08:58:12;100006.79;;;16.68;11.20
64698;BME280;51124;53.394;-6.294;2022-10-16T09:00:37;100005.38;;;17.60;10.48
64698;BME280;51124;53.394;-6.294;2022-10-16T09:03:10;100008.94;;;15.64;10.92
64698;BME280;51124;53.394;-6.294;2022-10-16T09:05:52;100009.22;;;17.78;10.14
64698;BME280;51124;53.394;-6.294;2022-10-16T09:08:08;100010.47;;;17.10;10.33
64698;BME280;51124;53.394;-6.294;2022-10-16T09:10:35;100004.35;;;16.30;10.62
64698;BME280;51124;53.394;-6.294;2022-10-16T09:13:10;100009.77;;;15.58;11.29
64698;BME280;51124;53.394;-6.294;2022-10-16T09:15:34;100013.90;;;15.13;11.34
64698;BME280;51124;53.394;-6.294;2022-10-16T09:18:06;100017.38;;;16.60;10.72
64698;BME280;51124;53.394;-6.294;2022-10-16T09:20:40;100029.15;;;16.44;11.17
64698;BME280;51124;53.394;-6.294;2022-10-16T09:23:14;100036.02;;;16.31;11.17
64698;BME280;51124;53.394;-6.294;2022-10-16T09:25:39;100039.23;;;17.11;10.87
64698;BME280;51124;53.394;-6.294;2022-10-16T09:28:04;100042.48;;;16.80;11.21
64698;BME280;51124;53.394;-6.294;2022-10-16T09:30:38;100050.58;;;16.96;11.06
64698;BME280;51124;53.394;-6.294;2022-10-16T09:33:13;100057.18;;;17.42;10.78
64698;BME280;51124;53.394;-6.294;2022-10-16T09:35:40;100061.55;;;17.62;10.91
64698;BME280;51124;53.394;-6.294;2022-10-16T09:38:03;100065.55;;;17.49;10.79
64698;BME280;51124;53.394;-6.294;2022-10-16T09:40:38;100062.66;;;17.85;10.86
64698;BME280;51124;53.394;-6.294;2022-10-16T09:43:19;100063.60;;;19.33;10.06
64698;BME280;51124;53.394;-6.294;2022-10-16T09:45:33;100053.78;;;18.58;9.51
64698;BME280;51124;53.394;-6.294;2022-10-16T09:48:11;100051.88;;;19.12;8.64
64698;BME280;51124;53.394;-6.294;2022-10-16T09:50:35;100054.47;;;19.65;8.55
64698;BME280;51124;53.394;-6.294;2022-10-16T09:53:11;100050.96;;;20.02;8.37
64698;BME280;51124;53.394;-6.294;2022-10-16T09:55:35;100046.27;;;20.12;8.54
64698;BME280;51124;53.394;-6.294;2022-10-16T09:58:13;100047.38;;;20.54;8.43
64698;BME280;51124;53.394;-6.294;2022-10-16T10:00:36;100051.13;;;20.89;8.33
64698;BME280;51124;53.394;-6.294;2022-10-16T10:03:10;100056.31;;;20.89;8.40
64698;BME280;51124;53.394;-6.294;2022-10-16T10:05:33;100061.12;;;20.33;8.68
64698;BME280;51124;53.394;-6.294;2022-10-16T10:08:15;100060.51;;;21.40;8.50
64698;BME280;51124;53.394;-6.294;2022-10-16T10:10:42;100068.11;;;20.21;8.59
64698;BME280;51124;53.394;-6.294;2022-10-16T10:13:17;100065.98;;;20.69;8.54
64698;BME280;51124;53.394;-6.294;2022-10-16T10:15:41;100061.35;;;20.80;8.60
64698;BME280;51124;53.394;-6.294;2022-10-16T10:18:16;100049.78;;;21.10;8.29
64698;BME280;51124;53.394;-6.294;2022-10-16T10:20:41;100049.68;;;21.45;8.56
64698;BME280;51124;53.394;-6.294;2022-10-16T10:23:21;100054.42;;;20.99;8.65
64698;BME280;51124;53.394;-6.294;2022-10-16T10:25:52;100048.92;;;20.46;8.56
64698;BME280;51124;53.394;-6.294;2022-10-16T10:28:24;100042.04;;;18.33;9.66
64698;BME280;51124;53.394;-6.294;2022-10-16T10:30:48;100040.28;;;18.87;8.96
64698;BME280;51124;53.394;-6.294;2022-10-16T10:33:21;100048.56;;;18.89;9.26
64698;BME280;51124;53.394;-6.294;2022-10-16T10:35:55;100045.49;;;23.46;8.34
64698;BME280;51124;53.394;-6.294;2022-10-16T10:38:30;100041.14;;;23.63;8.09
64698;BME280;51124;53.394;-6.294;2022-10-16T10:41:03;100038.45;;;20.54;8.19
64698;BME280;51124;53.394;-6.294;2022-10-16T10:43:30;100046.25;;;20.71;8.18
64698;BME280;51124;53.394;-6.294;2022-10-16T10:45:54;100051.57;;;24.70;8.65
64698;BME280;51124;53.394;-6.294;2022-10-16T10:48:32;100058.64;;;22.88;9.39
64698;BME280;51124;53.394;-6.294;2022-10-16T10:50:57;100054.03;;;23.14;9.81
64698;BME280;51124;53.394;-6.294;2022-10-16T10:53:32;100064.71;;;22.45;10.13
64698;BME280;51124;53.394;-6.294;2022-10-16T10:56:07;100071.31;;;22.76;10.19
64698;BME280;51124;53.394;-6.294;2022-10-16T10:59:04;100072.20;;;22.15;10.37
64698;BME280;51124;53.394;-6.294;2022-10-16T11:01:06;100077.26;;;22.91;10.25
64698;BME280;51124;53.394;-6.294;2022-10-16T11:03:57;100083.17;;;22.62;10.56
64698;BME280;51124;53.394;-6.294;2022-10-16T11:06:07;100090.02;;;22.56;10.64
64698;BME280;51124;53.394;-6.294;2022-10-16T11:08:35;100082.76;;;22.27;10.82
64698;BME280;51124;53.394;-6.294;2022-10-16T11:11:04;100072.83;;;23.38;10.51
64698;BME280;51124;53.394;-6.294;2022-10-16T11:13:33;100079.79;;;22.80;10.68
64698;BME280;51124;53.394;-6.294;2022-10-16T11:16:06;100080.56;;;22.20;11.01
64698;BME280;51124;53.394;-6.294;2022-10-16T11:18:44;100090.56;;;22.05;11.67
64698;BME280;51124;53.394;-6.294;2022-10-16T11:21:05;100081.72;;;21.86;11.82
64698;BME280;51124;53.394;-6.294;2022-10-16T11:23:35;100080.70;;;22.66;11.05
64698;BME280;51124;53.394;-6.294;2022-10-16T11:26:08;100091.18;;;21.95;11.22
64698;BME280;51124;53.394;-6.294;2022-10-16T11:28:38;100095.14;;;22.44;11.37
64698;BME280;51124;53.394;-6.294;2022-10-16T11:31:10;100094.31;;;22.69;11.35
64698;BME280;51124;53.394;-6.294;2022-10-16T11:33:41;100095.28;;;23.06;11.17
64698;BME280;51124;53.394;-6.294;2022-10-16T11:36:12;100086.87;;;20.35;11.03
64698;BME280;51124;53.394;-6.294;2022-10-16T11:38:43;100082.22;;;19.45;10.88
64698;BME280;51124;53.394;-6.294;2022-10-16T11:41:15;100077.17;;;19.59;10.51
64698;BME280;51124;53.394;-6.294;2022-10-16T11:43:46;100077.83;;;20.66;10.01
64698;BME280;51124;53.394;-6.294;2022-10-16T11:46:15;100079.66;;;19.15;9.74
64698;BME280;51124;53.394;-6.294;2022-10-16T11:48:45;100079.57;;;19.77;9.54
64698;BME280;51124;53.394;-6.294;2022-10-16T11:51:17;100067.45;;;18.77;9.63
64698;BME280;51124;53.394;-6.294;2022-10-16T11:53:50;100068.04;;;20.35;9.09
64698;BME280;51124;53.394;-6.294;2022-10-16T11:56:18;100069.97;;;19.29;9.40
64698;BME280;51124;53.394;-6.294;2022-10-16T11:58:52;100059.81;;;20.90;8.88
64698;BME280;51124;53.394;-6.294;2022-10-16T12:01:21;100057.86;;;21.36;8.71
64698;BME280;51124;53.394;-6.294;2022-10-16T12:03:50;100058.13;;;21.66;8.65
64698;BME280;51124;53.394;-6.294;2022-10-16T12:06:25;100050.48;;;20.36;8.78
64698;BME280;51124;53.394;-6.294;2022-10-16T12:08:42;100052.41;;;19.60;9.00
64698;BME280;51124;53.394;-6.294;2022-10-16T12:11:33;100040.14;;;19.20;9.09
64698;BME280;51124;53.394;-6.294;2022-10-16T12:13:46;100033.00;;;20.26;8.74
64698;BME280;51124;53.394;-6.294;2022-10-16T12:16:23;100034.64;;;19.82;8.82
64698;BME280;51124;53.394;-6.294;2022-10-16T12:18:48;100032.76;;;19.90;8.75
64698;BME280;51124;53.394;-6.294;2022-10-16T12:21:30;100031.43;;;19.27;8.86
64698;BME280;51124;53.394;-6.294;2022-10-16T12:24:02;100032.01;;;18.77;9.06
64698;BME280;51124;53.394;-6.294;2022-10-16T12:26:27;100029.31;;;18.80;9.07
64698;BME280;51124;53.394;-6.294;2022-10-16T12:28:52;100030.92;;;19.03;9.15
64698;BME280;51124;53.394;-6.294;2022-10-16T12:31:37;100029.37;;;18.92;9.11
64698;BME280;51124;53.394;-6.294;2022-10-16T12:33:57;100030.60;;;18.58;9.06
64698;BME280;51124;53.394;-6.294;2022-10-16T12:36:28;100033.11;;;17.74;9.27
64698;BME280;51124;53.394;-6.294;2022-10-16T12:38:53;100032.68;;;18.09;9.30
64698;BME280;51124;53.394;-6.294;2022-10-16T12:41:29;100042.07;;;18.01;9.35
64698;BME280;51124;53.394;-6.294;2022-10-16T12:43:53;100043.52;;;17.03;9.45
64698;BME280;51124;53.394;-6.294;2022-10-16T12:46:38;100040.70;;;18.43;9.29
64698;BME280;51124;53.394;-6.294;2022-10-16T12:49:17;100034.77;;;18.08;9.53
64698;BME280;51124;53.394;-6.294;2022-10-16T12:51:35;100040.43;;;18.12;9.29
64698;BME280;51124;53.394;-6.294;2022-10-16T12:54:00;100039.04;;;18.51;9.30
64698;BME280;51124;53.394;-6.294;2022-10-16T12:56:41;100036.02;;;19.91;8.18
64698;BME280;51124;53.394;-6.294;2022-10-16T12:59:07;100025.53;;;16.61;10.64
64698;BME280;51124;53.394;-6.294;2022-10-16T13:01:34;100021.47;;;17.68;10.80
64698;BME280;51124;53.394;-6.294;2022-10-16T13:04:18;100020.97;;;17.41;10.82
64698;BME280;51124;53.394;-6.294;2022-10-16T13:06:41;100011.90;;;18.84;10.16
64698;BME280;51124;53.394;-6.294;2022-10-16T13:09:25;100006.25;;;18.34;10.67